CON weather

Concord Municipal Airport
Concord, New Hampshire, United States

Public forecast

Using degrees Fahrenheit for public forecast. Weather courtesy of forecast.io.

Current aviation weather report (METAR) for Concord Municipal Airport

Retrieved 2019/12/10 17:51 UTC (40 minutes ago):

KCON 101751Z AUTO 23007KT 10SM OVC070 12/09 A2967 RMK AO2 SLP049 T01220089 10128 20094 55002

Aviation forecast (TAF) for Concord Municipal Airport

Retrieved 2019/12/10 18:24 UTC (7 minutes ago):

TAF KCON 101722Z 1018/1118 20007KT P6SM SCT015 OVC090 TEMPO 1018/1022 4SM -SHRA BKN015 OVC060 FM102200 29007KT P6SM BKN050 OVC090